createdAt,value
2019-03-25T00:01:56.656Z,6.40
2019-03-25T00:04:25.502Z,6.30
2019-03-25T00:06:54.349Z,6.40
2019-03-25T00:09:23.231Z,6.50
2019-03-25T00:11:52.066Z,6.50
2019-03-25T00:14:20.925Z,6.30
2019-03-25T00:16:49.807Z,6.20
2019-03-25T00:19:18.669Z,6.20
2019-03-25T00:21:47.504Z,6.20
2019-03-25T00:24:16.425Z,6.20
2019-03-25T00:26:45.273Z,6.10
2019-03-25T00:29:14.139Z,6.10
2019-03-25T00:31:50.057Z,6.00
2019-03-25T00:34:20.651Z,6.00
2019-03-25T00:36:49.482Z,6.00
2019-03-25T00:39:19.884Z,6.00
2019-03-25T00:41:48.746Z,6.00
2019-03-25T00:44:21.807Z,5.90
2019-03-25T00:46:54.871Z,5.90
2019-03-25T00:49:32.600Z,5.80
2019-03-25T00:52:01.495Z,5.70
2019-03-25T00:54:31.937Z,5.70
2019-03-25T00:57:05.778Z,5.70
2019-03-25T00:59:34.724Z,5.60
2019-03-25T01:02:12.797Z,5.60
2019-03-25T01:04:41.696Z,5.60
2019-03-25T01:07:10.549Z,5.60
2019-03-25T01:09:39.384Z,5.60
2019-03-25T01:12:08.306Z,5.50
2019-03-25T01:14:37.134Z,5.60
2019-03-25T01:17:06.001Z,5.60
2019-03-25T01:19:34.906Z,5.70
2019-03-25T01:22:03.769Z,5.70
2019-03-25T01:24:32.612Z,5.60
2019-03-25T01:27:01.812Z,5.50
2019-03-25T01:29:30.668Z,5.40
2019-03-25T01:31:59.519Z,5.40
2019-03-25T01:34:28.429Z,5.50
2019-03-25T01:36:57.268Z,5.70
2019-03-25T01:39:26.125Z,5.80
2019-03-25T01:41:55.055Z,5.90
2019-03-25T01:44:23.889Z,5.80
2019-03-25T01:46:52.727Z,5.80
2019-03-25T01:49:21.580Z,5.70
2019-03-25T01:51:50.381Z,5.50
2019-03-25T01:54:19.228Z,5.40
2019-03-25T01:56:48.117Z,5.30
2019-03-25T01:59:16.962Z,5.20
2019-03-25T02:01:45.794Z,5.20
2019-03-25T02:04:14.710Z,5.20
2019-03-25T02:06:43.565Z,5.20
2019-03-25T02:09:12.416Z,5.10
2019-03-25T02:11:41.325Z,5.10
2019-03-25T02:14:10.167Z,5.10
2019-03-25T02:16:39.025Z,5.00
2019-03-25T02:19:07.932Z,4.90
2019-03-25T02:21:36.788Z,4.80
2019-03-25T02:24:05.637Z,4.80
2019-03-25T02:26:34.590Z,4.80
2019-03-25T02:29:03.427Z,4.80
2019-03-25T02:31:32.303Z,4.70
2019-03-25T02:34:01.204Z,4.70
2019-03-25T02:36:30.063Z,4.70
2019-03-25T02:38:58.926Z,4.70
2019-03-25T02:41:27.803Z,4.60
2019-03-25T02:43:56.648Z,4.50
2019-03-25T02:46:25.501Z,4.60
2019-03-25T02:48:54.423Z,4.70
2019-03-25T02:51:23.291Z,4.70
2019-03-25T02:53:52.158Z,4.60
2019-03-25T02:56:21.047Z,4.60
2019-03-25T02:58:49.900Z,4.50
2019-03-25T03:01:18.752Z,4.40
2019-03-25T03:03:47.666Z,4.30
2019-03-25T03:06:16.533Z,4.30
2019-03-25T03:08:47.499Z,4.30
2019-03-25T03:11:15.965Z,4.30
2019-03-25T03:13:44.825Z,4.40
2019-03-25T03:16:13.664Z,4.30
2019-03-25T03:18:42.569Z,4.20
2019-03-25T03:21:11.407Z,4.20
2019-03-25T03:23:40.265Z,4.20
2019-03-25T03:26:09.158Z,4.20
2019-03-25T03:28:38.010Z,4.30
2019-03-25T03:31:06.885Z,4.30
2019-03-25T03:33:35.767Z,4.20
2019-03-25T03:36:04.645Z,4.20
2019-03-25T03:38:33.473Z,4.20
2019-03-25T03:41:02.562Z,4.30
2019-03-25T03:43:31.432Z,4.20
2019-03-25T03:46:00.273Z,4.10
2019-03-25T03:48:29.186Z,4.00
2019-03-25T03:50:58.432Z,4.10
2019-03-25T03:53:27.677Z,4.20
2019-03-25T03:56:11.552Z,4.10
2019-03-25T03:58:28.552Z,4.00
2019-03-25T04:00:57.406Z,4.00
2019-03-25T04:03:26.311Z,3.90
2019-03-25T04:05:55.348Z,3.80
2019-03-25T04:08:24.206Z,3.80
2019-03-25T04:10:53.091Z,3.70
2019-03-25T04:13:21.979Z,3.80
2019-03-25T04:15:50.818Z,3.70
2019-03-25T04:18:19.757Z,3.70
2019-03-25T04:20:48.603Z,3.70
2019-03-25T04:23:17.451Z,3.80
2019-03-25T04:25:46.351Z,3.80
2019-03-25T04:28:15.206Z,3.90
2019-03-25T04:30:44.053Z,3.90
2019-03-25T04:33:12.946Z,3.80
2019-03-25T04:35:42.680Z,3.80
2019-03-25T04:38:11.579Z,3.70
2019-03-25T04:40:40.491Z,3.60
2019-03-25T04:43:09.344Z,3.60
2019-03-25T04:45:38.205Z,3.60
2019-03-25T04:48:07.138Z,3.60
2019-03-25T04:50:35.997Z,3.80
2019-03-25T04:53:04.841Z,4.00
2019-03-25T04:55:33.755Z,3.90
2019-03-25T04:58:02.611Z,3.80
2019-03-25T05:00:33.740Z,3.80
2019-03-25T05:03:02.668Z,3.70
2019-03-25T05:05:31.520Z,3.60
2019-03-25T05:08:00.375Z,3.60
2019-03-25T05:10:29.285Z,3.60
2019-03-25T05:12:58.140Z,3.70
2019-03-25T05:15:27.001Z,3.70
2019-03-25T05:17:55.869Z,3.80
2019-03-25T05:20:24.758Z,3.90
2019-03-25T05:22:53.646Z,3.90
2019-03-25T05:25:22.510Z,3.90
2019-03-25T05:27:51.349Z,3.90
2019-03-25T05:30:22.865Z,4.00
2019-03-25T05:32:50.774Z,4.10
2019-03-25T05:35:19.623Z,4.10
2019-03-25T05:37:48.478Z,4.10
2019-03-25T05:40:18.334Z,4.30
2019-03-25T05:42:47.176Z,4.50
2019-03-25T05:45:16.048Z,4.70
2019-03-25T05:47:44.954Z,4.90
2019-03-25T05:50:13.814Z,5.20
2019-03-25T05:52:42.655Z,5.30
2019-03-25T05:55:11.538Z,5.50
2019-03-25T05:57:40.401Z,5.60
2019-03-25T06:00:10.579Z,5.70
2019-03-25T06:02:39.479Z,5.70
2019-03-25T06:05:08.822Z,5.80
2019-03-25T06:07:37.681Z,5.90
2019-03-25T06:10:07.601Z,6.00
2019-03-25T06:12:36.440Z,6.00
2019-03-25T06:15:06.786Z,6.00
2019-03-25T06:17:35.681Z,6.10
2019-03-25T06:20:06.783Z,6.20
2019-03-25T06:22:35.675Z,6.40
2019-03-25T06:25:07.007Z,6.40
2019-03-25T06:27:35.862Z,6.50
2019-03-25T06:30:06.987Z,6.60
2019-03-25T06:32:36.065Z,6.70
2019-03-25T06:35:08.887Z,6.90
2019-03-25T06:37:37.699Z,7.00
2019-03-25T06:40:08.271Z,7.30
2019-03-25T06:42:37.174Z,7.60
2019-03-25T06:45:08.099Z,7.90
2019-03-25T06:47:37.004Z,8.00
2019-03-25T06:50:09.645Z,8.20
2019-03-25T06:52:38.469Z,8.50
2019-03-25T06:55:09.316Z,8.80
2019-03-25T06:57:38.749Z,9.10
2019-03-25T07:00:10.101Z,9.70
2019-03-25T07:02:39.002Z,12.10
2019-03-25T07:05:08.566Z,15.30
2019-03-25T07:07:37.458Z,17.80
2019-03-25T07:10:06.959Z,20.30
2019-03-25T07:12:36.893Z,22.50
2019-03-25T07:15:08.930Z,23.60
2019-03-25T07:17:37.855Z,23.90
2019-03-25T07:20:11.165Z,24.40
2019-03-25T07:22:40.071Z,24.80
2019-03-25T07:25:09.199Z,25.30
2019-03-25T07:27:38.034Z,25.40
2019-03-25T07:30:08.397Z,26.00
2019-03-25T07:32:37.653Z,26.20
2019-03-25T07:35:07.697Z,26.60
2019-03-25T07:37:36.555Z,27.00
2019-03-25T07:40:08.550Z,27.30
2019-03-25T07:42:38.232Z,27.70
2019-03-25T07:45:08.310Z,27.60
2019-03-25T07:47:37.462Z,27.60
2019-03-25T07:50:07.999Z,27.90
2019-03-25T07:52:36.858Z,27.80
2019-03-25T07:55:06.877Z,27.20
2019-03-25T07:57:35.752Z,27.30
2019-03-25T08:00:13.558Z,28.30
2019-03-25T08:02:38.089Z,28.60
2019-03-25T08:05:07.371Z,29.10
2019-03-25T08:07:36.239Z,29.40
2019-03-25T08:10:06.558Z,29.50
2019-03-25T08:12:35.701Z,29.30
2019-03-25T08:15:06.585Z,29.50
2019-03-25T08:17:35.552Z,29.50
2019-03-25T08:20:08.509Z,29.70
2019-03-25T08:22:37.372Z,30.60
2019-03-25T08:25:07.491Z,31.20
2019-03-25T08:27:36.352Z,31.10
2019-03-25T08:30:07.770Z,31.60
2019-03-25T08:32:36.687Z,30.80
2019-03-25T08:35:06.833Z,31.70
2019-03-25T08:37:35.672Z,31.70
2019-03-25T08:40:23.869Z,31.50
2019-03-25T08:42:52.718Z,31.40
2019-03-25T08:45:21.578Z,31.80
2019-03-25T08:47:50.495Z,32.60
2019-03-25T08:50:19.351Z,33.30
2019-03-25T08:52:48.182Z,33.00
2019-03-25T08:55:17.098Z,32.90
2019-03-25T08:57:45.948Z,32.00
2019-03-25T09:00:15.178Z,31.30
2019-03-25T09:02:44.181Z,30.80
2019-03-25T09:05:13.117Z,29.80
2019-03-25T09:07:41.988Z,30.80
2019-03-25T09:10:11.489Z,31.40
2019-03-25T09:12:40.357Z,32.00
2019-03-25T09:15:10.496Z,31.70
2019-03-25T09:17:39.387Z,31.90
2019-03-25T09:20:10.443Z,32.60
2019-03-25T09:22:39.487Z,33.50
2019-03-25T09:25:08.907Z,34.40
2019-03-25T09:27:37.769Z,34.40
2019-03-25T09:30:09.128Z,34.40
2019-03-25T09:32:38.004Z,34.20
2019-03-25T09:35:09.053Z,34.10
2019-03-25T09:37:38.995Z,33.70
2019-03-25T09:40:10.098Z,33.70
2019-03-25T09:42:39.047Z,33.60
2019-03-25T09:45:09.412Z,32.80
2019-03-25T09:47:38.302Z,32.20
2019-03-25T09:50:08.179Z,32.20
2019-03-25T09:52:38.835Z,31.90
2019-03-25T09:55:08.473Z,31.90
2019-03-25T09:57:37.344Z,32.10
2019-03-25T10:00:10.925Z,32.40
2019-03-25T10:02:39.862Z,32.50
2019-03-25T10:05:08.999Z,32.10
2019-03-25T10:07:37.853Z,31.20
2019-03-25T10:10:09.954Z,30.90
2019-03-25T10:12:38.824Z,30.90
2019-03-25T10:15:09.195Z,29.90
2019-03-25T10:17:38.070Z,29.20
2019-03-25T10:20:08.304Z,28.60
2019-03-25T10:22:37.174Z,26.30
2019-03-25T10:25:07.610Z,24.00
2019-03-25T10:27:36.441Z,22.50
2019-03-25T10:30:10.106Z,21.70
2019-03-25T10:32:39.108Z,21.40
2019-03-25T10:35:08.481Z,21.30
2019-03-25T10:37:37.332Z,21.00
2019-03-25T10:40:10.954Z,20.80
2019-03-25T10:42:39.804Z,20.90
2019-03-25T10:45:09.857Z,20.60
2019-03-25T10:47:38.758Z,20.50
2019-03-25T10:50:08.194Z,20.50
2019-03-25T10:52:37.054Z,20.50
2019-03-25T10:55:08.098Z,20.60
2019-03-25T10:57:37.071Z,20.70
2019-03-25T11:00:08.195Z,20.70
2019-03-25T11:02:37.106Z,20.70
2019-03-25T11:05:07.758Z,20.60
2019-03-25T11:07:36.642Z,20.70
2019-03-25T11:10:12.957Z,20.90
2019-03-25T11:12:41.800Z,20.90
2019-03-25T11:15:11.153Z,20.80
2019-03-25T11:17:40.058Z,20.70
2019-03-25T11:20:10.427Z,20.60
2019-03-25T11:22:39.271Z,20.50
2019-03-25T11:25:08.979Z,20.40
2019-03-25T11:27:37.834Z,20.30
2019-03-25T11:30:09.382Z,20.30
2019-03-25T11:32:38.280Z,20.30
2019-03-25T11:35:09.304Z,20.40
2019-03-25T11:37:38.152Z,20.40
2019-03-25T11:40:08.757Z,20.30
2019-03-25T11:42:37.599Z,19.90
2019-03-25T11:45:10.737Z,19.90
2019-03-25T11:47:39.659Z,19.90
2019-03-25T11:50:08.804Z,19.90
2019-03-25T11:52:37.679Z,19.90
2019-03-25T11:55:07.444Z,20.00
2019-03-25T11:57:36.278Z,20.10
2019-03-25T12:00:08.126Z,20.00
2019-03-25T12:02:37.034Z,19.80
2019-03-25T12:05:09.681Z,19.70
2019-03-25T12:07:38.523Z,19.80
2019-03-25T12:10:08.139Z,20.10
2019-03-25T12:12:36.977Z,20.30
2019-03-25T12:15:07.809Z,20.30
2019-03-25T12:17:36.721Z,20.40
2019-03-25T12:20:06.955Z,20.20
2019-03-25T12:22:35.803Z,20.10
2019-03-25T12:25:06.727Z,19.90
2019-03-25T12:27:35.574Z,19.90
2019-03-25T12:30:07.094Z,20.00
2019-03-25T12:32:36.028Z,20.10
2019-03-25T12:35:07.144Z,20.00
2019-03-25T12:37:35.985Z,20.00
2019-03-25T12:40:07.850Z,20.10
2019-03-25T12:42:37.200Z,20.10
2019-03-25T12:45:08.830Z,19.90
2019-03-25T12:47:37.720Z,19.80
2019-03-25T12:50:07.882Z,19.90
2019-03-25T12:52:36.744Z,20.00
2019-03-25T12:55:07.150Z,20.00
2019-03-25T12:57:35.993Z,20.10
2019-03-25T13:00:07.205Z,20.20
2019-03-25T13:02:36.092Z,20.00
2019-03-25T13:05:06.331Z,19.90
2019-03-25T13:07:35.191Z,19.70
2019-03-25T13:10:05.039Z,19.60
2019-03-25T13:12:33.914Z,19.60
2019-03-25T13:15:02.766Z,19.70
2019-03-25T13:17:31.678Z,19.70
2019-03-25T13:20:00.525Z,19.70
2019-03-25T13:22:29.369Z,19.70
2019-03-25T13:24:58.274Z,19.70
2019-03-25T13:27:27.116Z,19.70
2019-03-25T13:29:55.964Z,19.70
2019-03-25T13:32:24.881Z,19.60
2019-03-25T13:34:53.709Z,19.40
2019-03-25T13:37:22.560Z,19.40
2019-03-25T13:39:51.490Z,19.50
2019-03-25T13:42:20.349Z,19.60
2019-03-25T13:44:49.180Z,19.50
2019-03-25T13:47:18.066Z,19.40
2019-03-25T13:49:47.938Z,19.20
2019-03-25T13:52:16.776Z,19.20
2019-03-25T13:54:45.668Z,19.30
2019-03-25T13:57:14.514Z,19.40
2019-03-25T13:59:43.368Z,19.30
2019-03-25T14:02:12.276Z,19.20
2019-03-25T14:04:41.110Z,19.20
2019-03-25T14:07:09.953Z,19.20
2019-03-25T14:09:38.841Z,19.30
2019-03-25T14:12:07.678Z,19.20
2019-03-25T14:14:36.512Z,19.10
2019-03-25T14:17:05.403Z,19.20
2019-03-25T14:19:34.261Z,19.20
2019-03-25T14:22:03.085Z,19.10
2019-03-25T14:24:31.995Z,19.10
2019-03-25T14:27:00.844Z,19.10
2019-03-25T14:29:29.686Z,19.00
2019-03-25T14:31:58.580Z,19.00
2019-03-25T14:34:27.438Z,19.00
2019-03-25T14:36:56.270Z,18.80
2019-03-25T14:39:25.169Z,18.90
2019-03-25T14:41:54.030Z,18.90
2019-03-25T14:44:22.889Z,18.80
2019-03-25T14:46:51.951Z,18.70
2019-03-25T14:49:20.808Z,18.60
2019-03-25T14:51:50.754Z,18.50
2019-03-25T14:54:19.595Z,18.60
2019-03-25T14:56:48.448Z,18.60
2019-03-25T14:59:17.609Z,18.60
2019-03-25T15:01:47.936Z,18.50
2019-03-25T15:04:16.775Z,18.50
2019-03-25T15:06:45.708Z,18.50
2019-03-25T15:09:14.531Z,18.40
2019-03-25T15:11:43.365Z,18.30
2019-03-25T15:14:12.244Z,18.20
2019-03-25T15:16:41.087Z,18.20
2019-03-25T15:19:09.938Z,18.30
2019-03-25T15:21:38.848Z,18.30
2019-03-25T15:24:07.690Z,18.30
2019-03-25T15:26:36.534Z,18.10
2019-03-25T15:29:05.525Z,18.00
2019-03-25T15:31:34.373Z,17.90
2019-03-25T15:34:03.244Z,17.80
2019-03-25T15:36:32.534Z,17.70
2019-03-25T15:39:01.404Z,17.60
2019-03-25T15:41:30.253Z,17.50
2019-03-25T15:43:59.163Z,17.50
2019-03-25T15:46:27.990Z,17.50
2019-03-25T15:48:56.844Z,17.50
2019-03-25T15:51:25.766Z,17.60
2019-03-25T15:53:54.800Z,17.40
2019-03-25T15:56:23.713Z,17.30
2019-03-25T15:58:52.706Z,17.30
2019-03-25T16:01:21.701Z,17.30
2019-03-25T16:03:50.529Z,17.20
2019-03-25T16:06:19.429Z,17.20
2019-03-25T16:08:48.266Z,17.20
2019-03-25T16:11:17.114Z,17.10
2019-03-25T16:13:46.022Z,17.00
2019-03-25T16:16:14.861Z,17.00
2019-03-25T16:18:43.834Z,17.00
2019-03-25T16:21:12.870Z,17.00
2019-03-25T16:23:41.889Z,16.90
2019-03-25T16:26:10.783Z,16.80
2019-03-25T16:28:39.802Z,16.70
2019-03-25T16:31:08.794Z,16.70
2019-03-25T16:33:37.757Z,16.60
2019-03-25T16:36:06.965Z,16.50
2019-03-25T16:38:35.873Z,16.40
2019-03-25T16:41:04.698Z,16.20
2019-03-25T16:43:33.656Z,16.10
2019-03-25T16:46:02.546Z,16.00
2019-03-25T16:48:31.433Z,15.90
2019-03-25T16:51:00.720Z,15.80
2019-03-25T16:53:29.626Z,15.80
2019-03-25T16:55:59.537Z,15.70
2019-03-25T16:58:28.511Z,15.70
2019-03-25T17:00:57.422Z,15.50
2019-03-25T17:03:26.309Z,15.40
2019-03-25T17:05:55.302Z,15.30
2019-03-25T17:08:24.374Z,15.20
2019-03-25T17:10:53.390Z,15.20
2019-03-25T17:13:22.365Z,15.10
2019-03-25T17:15:51.377Z,15.20
2019-03-25T17:18:20.369Z,15.10
2019-03-25T17:20:49.337Z,15.10
2019-03-25T17:23:18.355Z,15.10
2019-03-25T17:25:53.064Z,15.10
2019-03-25T17:28:18.124Z,15.10
2019-03-25T17:30:47.080Z,15.10
2019-03-25T17:33:16.069Z,15.10
2019-03-25T17:35:45.170Z,15.00
2019-03-25T17:38:14.051Z,15.00
2019-03-25T17:40:42.941Z,15.00
2019-03-25T17:43:12.211Z,15.00
2019-03-25T17:45:41.417Z,15.00
2019-03-25T17:48:10.432Z,15.00
2019-03-25T17:50:39.397Z,15.00
2019-03-25T17:53:08.390Z,15.00
2019-03-25T17:55:37.318Z,14.90
2019-03-25T17:58:08.180Z,14.80
2019-03-25T18:00:49.013Z,14.70
2019-03-25T18:03:18.115Z,14.50
2019-03-25T18:05:47.101Z,14.40
2019-03-25T18:08:16.507Z,14.30
2019-03-25T18:10:45.398Z,14.30
2019-03-25T18:13:22.299Z,14.20
2019-03-25T18:15:44.781Z,14.10
2019-03-25T18:18:13.667Z,14.10
2019-03-25T18:20:42.510Z,14.00
2019-03-25T18:23:11.368Z,13.90
2019-03-25T18:25:40.268Z,13.90
2019-03-25T18:28:09.310Z,13.90
2019-03-25T18:30:38.255Z,13.80
2019-03-25T18:33:07.212Z,13.90
2019-03-25T18:35:36.062Z,13.80
2019-03-25T18:38:05.105Z,13.70
2019-03-25T18:40:33.989Z,13.70
2019-03-25T18:43:02.831Z,13.70
2019-03-25T18:45:31.765Z,13.70
2019-03-25T18:48:00.691Z,13.60
2019-03-25T18:50:29.559Z,13.60
2019-03-25T18:52:58.406Z,13.50
2019-03-25T18:55:27.459Z,13.50
2019-03-25T18:57:56.339Z,13.40
2019-03-25T19:00:36.059Z,13.30
2019-03-25T19:03:05.081Z,13.40
2019-03-25T19:05:33.929Z,13.40
2019-03-25T19:08:04.600Z,13.40
2019-03-25T19:10:33.642Z,13.30
2019-03-25T19:13:02.494Z,13.30
2019-03-25T19:15:31.355Z,13.40
2019-03-25T19:18:00.197Z,13.40
2019-03-25T19:20:29.048Z,13.40
2019-03-25T19:22:57.986Z,13.30
2019-03-25T19:25:26.801Z,13.20
2019-03-25T19:27:55.657Z,13.20
2019-03-25T19:30:24.668Z,13.10
2019-03-25T19:32:53.509Z,13.00
2019-03-25T19:35:22.339Z,13.10
2019-03-25T19:37:51.236Z,13.10
2019-03-25T19:40:20.079Z,13.00
2019-03-25T19:42:48.938Z,13.00
2019-03-25T19:45:18.093Z,13.00
2019-03-25T19:47:47.075Z,13.00
2019-03-25T19:50:16.672Z,13.00
2019-03-25T19:52:45.925Z,13.00
2019-03-25T19:55:15.269Z,13.00
2019-03-25T19:57:44.176Z,12.90
2019-03-25T20:00:13.586Z,12.80
2019-03-25T20:02:43.465Z,12.80
2019-03-25T20:05:12.871Z,12.30
2019-03-25T20:07:41.884Z,12.00
2019-03-25T20:10:19.708Z,11.80
2019-03-25T20:12:49.085Z,11.60
2019-03-25T20:15:17.965Z,11.40
2019-03-25T20:17:46.987Z,11.30
2019-03-25T20:20:15.834Z,11.10
2019-03-25T20:22:44.669Z,11.00
2019-03-25T20:25:13.539Z,11.00
2019-03-25T20:27:45.450Z,10.90
2019-03-25T20:30:14.669Z,10.80
2019-03-25T20:32:43.515Z,10.70
2019-03-25T20:35:12.539Z,10.70
2019-03-25T20:37:41.428Z,10.90
2019-03-25T20:40:10.498Z,10.90
2019-03-25T20:42:39.493Z,10.70
2019-03-25T20:45:09.174Z,10.60
2019-03-25T20:47:38.132Z,10.50
2019-03-25T20:50:07.942Z,10.40
2019-03-25T20:52:36.839Z,10.40
2019-03-25T20:55:10.754Z,10.50
2019-03-25T20:57:40.675Z,10.50
2019-03-25T21:00:10.736Z,10.40
2019-03-25T21:02:45.060Z,10.20
2019-03-25T21:05:10.515Z,9.90
2019-03-25T21:07:39.494Z,9.60
2019-03-25T21:10:08.724Z,9.40
2019-03-25T21:12:38.675Z,9.30
2019-03-25T21:15:09.189Z,9.30
2019-03-25T21:17:38.160Z,9.30
2019-03-25T21:20:08.892Z,9.20
2019-03-25T21:22:37.779Z,9.00
2019-03-25T21:25:07.616Z,8.80
2019-03-25T21:27:36.822Z,8.70
2019-03-25T21:30:07.793Z,8.50
2019-03-25T21:32:36.925Z,8.30
2019-03-25T21:35:07.700Z,8.00
2019-03-25T21:37:36.665Z,7.70
2019-03-25T21:40:07.255Z,7.60
2019-03-25T21:42:36.466Z,7.50
2019-03-25T21:45:08.196Z,7.40
2019-03-25T21:47:37.187Z,7.40
2019-03-25T21:50:09.789Z,7.30
2019-03-25T21:52:38.891Z,7.10
2019-03-25T21:55:08.410Z,7.00
2019-03-25T21:57:37.589Z,6.80
2019-03-25T22:00:07.437Z,6.80
2019-03-25T22:02:36.495Z,6.80
2019-03-25T22:05:07.485Z,6.80
2019-03-25T22:07:36.540Z,6.70
2019-03-25T22:10:06.114Z,6.50
2019-03-25T22:12:35.208Z,6.60
2019-03-25T22:15:06.786Z,6.60
2019-03-25T22:17:35.778Z,6.60
2019-03-25T22:20:08.060Z,6.50
2019-03-25T22:22:36.916Z,6.40
2019-03-25T22:25:07.862Z,6.20
2019-03-25T22:27:36.765Z,6.20
2019-03-25T22:30:09.952Z,6.10
2019-03-25T22:32:38.849Z,6.00
2019-03-25T22:35:08.153Z,6.00
2019-03-25T22:37:38.394Z,5.90
2019-03-25T22:40:08.134Z,5.90
2019-03-25T22:42:37.138Z,5.90
2019-03-25T22:45:06.864Z,5.80
2019-03-25T22:47:36.493Z,5.90
2019-03-25T22:50:10.328Z,5.80
2019-03-25T22:52:39.181Z,5.90
2019-03-25T22:55:08.177Z,6.00
2019-03-25T22:57:37.063Z,6.10
2019-03-25T23:00:07.900Z,6.10
2019-03-25T23:02:36.736Z,6.00
2019-03-25T23:05:06.571Z,6.10
2019-03-25T23:07:35.508Z,6.00
2019-03-25T23:10:05.772Z,6.10
2019-03-25T23:12:34.677Z,6.10
2019-03-25T23:15:03.715Z,6.10
2019-03-25T23:17:32.575Z,6.30
2019-03-25T23:20:01.447Z,6.30
2019-03-25T23:22:30.286Z,6.50
2019-03-25T23:24:59.137Z,6.70
2019-03-25T23:27:28.020Z,6.80
2019-03-25T23:29:56.847Z,6.70
2019-03-25T23:32:25.688Z,6.70
2019-03-25T23:34:54.600Z,6.60
2019-03-25T23:37:23.635Z,6.40
2019-03-25T23:39:52.454Z,6.40
2019-03-25T23:42:21.333Z,6.40
2019-03-25T23:44:50.181Z,6.40
2019-03-25T23:47:19.120Z,6.50
2019-03-25T23:49:48.078Z,6.50
2019-03-25T23:52:16.905Z,6.40
2019-03-25T23:54:45.741Z,6.40
2019-03-25T23:57:14.671Z,6.40
2019-03-25T23:59:43.508Z,6.50
